Time;durP1;ratioP1;P1;durP2;ratioP2;P2;SDS_P1;SDS_P2;PMS_P1;PMS_P2;Temp;Humidity;BMP_temperature;BMP_pressure;BME280_temperature;BME280_humidity;BME280_pressure;Samples;Min_cycle;Max_cycle;Signal;HPM_P1;HPM_P2
2023/07/18 00:01:45;;;;;;;4.40;3.22;;;20.80;99.90;;;;;;5093596;28;20028;-80
2023/07/18 00:04:11;;;;;;;8.43;3.03;;;20.80;99.90;;;;;;5111957;28;20110;-80
2023/07/18 00:06:40;;;;;;;4.85;3.25;;;20.80;99.90;;;;;;5113340;28;20519;-80
2023/07/18 00:09:06;;;;;;;3.08;2.67;;;20.80;99.90;;;;;;5097547;28;20310;-81
2023/07/18 00:11:31;;;;;;;3.15;2.28;;;20.80;99.90;;;;;;5116084;28;20099;-80
2023/07/18 00:13:57;;;;;;;4.85;2.53;;;20.80;99.90;;;;;;5097811;28;20024;-79
2023/07/18 00:16:23;;;;;;;3.10;2.10;;;20.80;99.90;;;;;;5115391;28;20034;-81
2023/07/18 00:18:50;;;;;;;3.45;2.42;;;20.90;99.90;;;;;;5097194;28;20172;-80
2023/07/18 00:21:16;;;;;;;5.82;2.28;;;20.90;99.90;;;;;;5097522;28;20070;-81
2023/07/18 00:23:42;;;;;;;5.50;2.50;;;20.90;99.90;;;;;;5097154;28;20020;-81
2023/07/18 00:26:08;;;;;;;4.95;2.17;;;20.90;99.90;;;;;;5115515;28;20052;-81
2023/07/18 00:28:34;;;;;;;6.47;1.75;;;21.00;99.90;;;;;;5097384;28;20047;-81
2023/07/18 00:31:01;;;;;;;4.72;1.90;;;21.00;99.90;;;;;;5093722;28;20055;-81
2023/07/18 00:33:27;;;;;;;6.40;2.17;;;21.00;99.90;;;;;;5093898;28;20048;-81
2023/07/18 00:35:52;;;;;;;5.15;2.20;;;21.00;99.90;;;;;;5093569;28;20032;-81
2023/07/18 00:38:20;;;;;;;3.30;2.40;;;21.00;99.90;;;;;;5093584;28;20054;-81
2023/07/18 00:40:48;;;;;;;4.95;2.78;;;21.10;99.90;;;;;;5094994;28;20230;-81
2023/07/18 00:43:14;;;;;;;4.63;2.50;;;21.00;99.90;;;;;;5094709;28;20035;-81
2023/07/18 00:45:41;;;;;;;3.47;2.03;;;21.10;99.90;;;;;;5093461;28;20031;-81
2023/07/18 00:48:09;;;;;;;4.57;2.25;;;21.10;99.90;;;;;;5094944;28;20075;-80
2023/07/18 00:50:36;;;;;;;5.78;2.17;;;21.10;99.90;;;;;;5093547;28;20028;-81
2023/07/18 00:53:02;;;;;;;2.83;2.38;;;21.10;99.90;;;;;;5094406;28;20149;-81
2023/07/18 00:55:28;;;;;;;4.30;1.90;;;21.10;99.90;;;;;;5093440;28;20034;-81
2023/07/18 00:57:55;;;;;;;4.93;1.85;;;21.20;99.90;;;;;;5093292;28;20032;-81
2023/07/18 01:00:22;;;;;;;2.80;1.40;;;21.30;99.90;;;;;;5092974;28;20047;-80
2023/07/18 01:02:49;;;;;;;4.90;1.88;;;21.50;99.90;;;;;;5094648;28;20021;-81
2023/07/18 01:05:16;;;;;;;3.97;1.67;;;21.70;99.90;;;;;;5094773;28;20020;-81
2023/07/18 01:07:43;;;;;;;3.83;1.63;;;21.90;99.90;;;;;;5094238;28;20089;-81
2023/07/18 01:10:23;;;;;;;3.90;1.23;;;22.20;99.90;;;;;;5094477;28;20643;-81
2023/07/18 01:12:53;;;;;;;2.65;1.40;;;22.40;99.90;;;;;;5093081;28;20408;-81
2023/07/18 01:15:19;;;;;;;3.85;1.83;;;22.60;99.90;;;;;;5094287;28;20028;-81
2023/07/18 01:17:46;;;;;;;2.00;1.50;;;22.70;99.90;;;;;;5093031;28;20074;-81
2023/07/18 01:20:30;;;;;;;2.83;1.45;;;22.80;99.90;;;;;;5094183;28;20142;-81
2023/07/18 01:23:03;;;;;;;5.10;1.70;;;22.90;99.90;;;;;;5094159;28;20024;-81
2023/07/18 01:25:30;;;;;;;2.60;1.15;;;22.90;99.90;;;;;;5094070;28;20017;-83
2023/07/18 01:27:56;;;;;;;3.25;1.38;;;23.00;99.90;;;;;;5093884;28;20031;-84
2023/07/18 01:30:27;;;;;;;5.57;1.58;;;23.10;99.90;;;;;;5104154;28;20040;-83
2023/07/18 01:32:53;;;;;;;2.95;1.35;;;23.10;99.90;;;;;;5113576;28;20027;-83
2023/07/18 01:35:25;;;;;;;3.50;1.75;;;23.10;99.90;;;;;;5113683;28;20026;-83
2023/07/18 01:37:51;;;;;;;4.53;1.85;;;23.20;99.90;;;;;;5095913;28;20027;-83
2023/07/18 01:40:20;;;;;;;2.78;1.50;;;23.10;99.90;;;;;;5095665;28;20099;-84
2023/07/18 01:42:46;;;;;;;4.45;1.48;;;23.10;99.90;;;;;;5095816;28;20028;-83
2023/07/18 01:45:12;;;;;;;5.60;1.45;;;23.00;99.90;;;;;;5113702;28;20096;-83
2023/07/18 01:47:40;;;;;;;3.47;1.65;;;22.90;99.90;;;;;;5114566;28;20422;-83
2023/07/18 01:50:07;;;;;;;2.58;1.80;;;22.80;99.90;;;;;;5114138;28;20510;-83
2023/07/18 01:52:34;;;;;;;2.65;1.80;;;22.70;99.90;;;;;;5095283;28;20433;-83
2023/07/18 01:55:02;;;;;;;3.25;1.77;;;22.70;99.90;;;;;;5095451;28;20055;-83
2023/07/18 01:57:30;;;;;;;3.72;1.80;;;22.60;99.90;;;;;;5113713;28;20028;-83
2023/07/18 01:59:57;;;;;;;3.10;1.40;;;22.60;99.90;;;;;;5113566;28;20112;-83
2023/07/18 02:02:23;;;;;;;3.38;1.42;;;22.60;99.90;;;;;;5113218;28;20028;-83
2023/07/18 02:04:49;;;;;;;3.08;1.48;;;22.60;99.90;;;;;;5113836;28;20023;-81
2023/07/18 02:07:15;;;;;;;7.60;2.03;;;22.50;99.90;;;;;;5113747;28;20026;-82
2023/07/18 02:09:41;;;;;;;4.28;1.52;;;22.50;99.90;;;;;;5113825;28;20026;-80
2023/07/18 02:12:08;;;;;;;8.75;1.70;;;22.50;99.90;;;;;;5113636;28;20039;-81
2023/07/18 02:14:36;;;;;;;3.75;1.58;;;22.60;99.90;;;;;;5113599;28;20024;-81
2023/07/18 02:17:02;;;;;;;3.20;1.67;;;22.60;99.90;;;;;;5095402;28;20031;-81
2023/07/18 02:19:28;;;;;;;5.63;1.80;;;22.50;99.90;;;;;;5113500;28;20024;-81
2023/07/18 02:21:54;;;;;;;2.67;1.52;;;22.50;99.90;;;;;;5095161;28;20023;-81
2023/07/18 02:24:20;;;;;;;3.95;1.40;;;22.50;99.90;;;;;;5113114;28;20034;-83
2023/07/18 02:26:45;;;;;;;6.18;2.00;;;22.50;99.90;;;;;;5113008;28;20027;-83
2023/07/18 02:29:13;;;;;;;5.07;1.80;;;22.40;99.90;;;;;;5112557;28;20030;-81
2023/07/18 02:31:39;;;;;;;5.53;2.00;;;22.30;99.90;;;;;;5113397;28;20058;-81
2023/07/18 02:34:05;;;;;;;3.35;1.63;;;22.30;99.90;;;;;;5113138;28;20031;-81
2023/07/18 02:36:32;;;;;;;3.97;1.63;;;22.30;99.90;;;;;;5113198;28;20030;-80
2023/07/18 02:38:59;;;;;;;2.60;1.27;;;22.30;99.90;;;;;;5094643;28;20027;-80
2023/07/18 02:41:24;;;;;;;7.82;1.90;;;22.20;99.90;;;;;;5113144;28;20020;-79
2023/07/18 02:43:50;;;;;;;2.20;1.58;;;22.20;99.90;;;;;;5112616;28;20542;-81
2023/07/18 02:46:15;;;;;;;4.93;2.25;;;22.10;99.90;;;;;;5094712;28;20067;-84
2023/07/18 02:48:42;;;;;;;3.58;1.58;;;22.10;99.90;;;;;;5112873;28;20098;-81
2023/07/18 02:51:07;;;;;;;4.00;1.52;;;22.10;99.90;;;;;;5112543;28;20038;-80
2023/07/18 02:53:33;;;;;;;3.35;1.90;;;22.00;99.90;;;;;;5094550;28;20031;-80
2023/07/18 02:55:58;;;;;;;3.00;1.65;;;22.00;99.90;;;;;;5094421;28;20027;-81
2023/07/18 02:58:24;;;;;;;5.75;1.52;;;22.00;99.90;;;;;;5094291;28;20028;-80
2023/07/18 03:00:53;;;;;;;5.13;1.60;;;21.90;99.90;;;;;;5112775;28;20048;-81
2023/07/18 03:03:19;;;;;;;4.70;1.50;;;21.90;99.90;;;;;;5094376;28;20023;-81
2023/07/18 03:05:44;;;;;;;6.22;1.80;;;21.80;99.90;;;;;;5112537;28;20076;-81
2023/07/18 03:08:10;;;;;;;4.63;2.20;;;21.80;99.90;;;;;;5112520;28;20074;-81
2023/07/18 03:10:37;;;;;;;3.42;1.70;;;21.70;99.90;;;;;;5094577;28;20067;-81
2023/07/18 03:13:03;;;;;;;6.50;2.30;;;21.70;99.90;;;;;;5112409;28;20059;-80
2023/07/18 03:15:29;;;;;;;2.85;1.75;;;21.70;99.90;;;;;;5094347;28;20062;-80
2023/07/18 03:17:54;;;;;;;7.88;1.98;;;21.70;99.90;;;;;;5112303;28;20027;-80
2023/07/18 03:20:20;;;;;;;2.90;1.60;;;21.60;99.90;;;;;;5094165;28;20020;-81
2023/07/18 03:22:47;;;;;;;2.22;1.40;;;21.70;99.90;;;;;;5112439;28;20514;-81
2023/07/18 03:25:13;;;;;;;3.10;1.95;;;21.70;99.90;;;;;;5112372;28;20392;-81
2023/07/18 03:27:39;;;;;;;6.72;2.10;;;21.80;99.90;;;;;;5093823;28;20039;-81
2023/07/18 03:30:06;;;;;;;3.78;1.75;;;21.80;99.90;;;;;;5111883;28;20042;-81
2023/07/18 03:32:33;;;;;;;3.70;1.90;;;21.80;99.90;;;;;;5112048;28;20031;-81
2023/07/18 03:34:59;;;;;;;3.75;2.10;;;21.80;99.90;;;;;;5093963;28;20034;-81
2023/07/18 03:37:28;;;;;;;6.20;1.73;;;21.90;99.90;;;;;;5093854;28;20023;-81
2023/07/18 03:39:53;;;;;;;3.78;1.50;;;21.90;99.90;;;;;;5111551;28;20435;-81
2023/07/18 03:42:21;;;;;;;2.35;1.38;;;22.00;99.90;;;;;;5093064;28;20484;-81
2023/07/18 03:44:47;;;;;;;2.80;1.70;;;22.00;99.90;;;;;;5093915;28;20038;-81
2023/07/18 03:47:12;;;;;;;4.38;1.95;;;22.00;99.90;;;;;;5111596;28;20023;-81
2023/07/18 03:49:38;;;;;;;2.97;1.95;;;22.00;99.90;;;;;;5111390;28;20023;-80
2023/07/18 03:52:05;;;;;;;4.60;2.53;;;22.00;99.90;;;;;;5093484;28;20030;-81
2023/07/18 03:54:33;;;;;;;6.22;2.53;;;22.00;99.90;;;;;;5093789;28;20043;-79
2023/07/18 03:56:59;;;;;;;3.83;2.15;;;21.90;99.90;;;;;;5111655;28;20048;-81
2023/07/18 03:59:25;;;;;;;3.83;1.92;;;21.90;99.90;;;;;;5111951;28;20448;-81
2023/07/18 04:01:52;;;;;;;3.15;1.88;;;22.00;99.90;;;;;;5093554;28;20032;-81
2023/07/18 04:04:17;;;;;;;4.22;2.47;;;22.00;99.90;;;;;;5093139;28;20441;-81
2023/07/18 04:06:46;;;;;;;5.30;2.30;;;22.10;99.90;;;;;;5111662;28;20028;-84
2023/07/18 04:09:12;;;;;;;4.78;2.20;;;22.20;99.90;;;;;;5111336;28;20022;-84
2023/07/18 04:11:39;;;;;;;3.00;1.90;;;22.40;99.90;;;;;;5093159;28;20020;-83
2023/07/18 04:14:04;;;;;;;4.45;2.15;;;22.50;99.90;;;;;;5093154;28;20032;-84
2023/07/18 04:16:30;;;;;;;4.22;2.10;;;22.60;99.90;;;;;;5111322;28;20028;-83
2023/07/18 04:18:56;;;;;;;3.42;1.80;;;22.70;99.90;;;;;;5093224;28;20027;-84
2023/07/18 04:21:22;;;;;;;6.55;2.10;;;22.80;99.90;;;;;;5111204;28;20032;-84
2023/07/18 04:23:48;;;;;;;3.22;1.90;;;22.90;99.90;;;;;;5092620;28;20158;-84
2023/07/18 04:26:14;;;;;;;5.18;2.20;;;23.10;99.90;;;;;;5110790;28;20057;-82
2023/07/18 04:28:39;;;;;;;3.28;1.70;;;23.20;99.90;;;;;;5111523;28;20028;-82
2023/07/18 04:31:06;;;;;;;2.95;1.40;;;23.40;99.90;;;;;;5110776;28;20066;-83
2023/07/18 04:33:37;;;;;;;2.92;1.83;;;23.60;99.90;;;;;;5093019;28;20036;-83
2023/07/18 04:36:07;;;;;;;2.63;1.85;;;23.70;99.90;;;;;;5111395;28;20387;-83
2023/07/18 04:38:34;;;;;;;4.60;2.28;;;23.80;99.90;;;;;;5110975;28;20381;-83
2023/07/18 04:41:01;;;;;;;4.80;1.60;;;23.90;99.90;;;;;;5092907;28;20407;-83
2023/07/18 04:43:27;;;;;;;7.10;3.33;;;24.00;99.90;;;;;;5111246;28;20077;-83
2023/07/18 04:45:53;;;;;;;4.63;2.15;;;23.90;99.90;;;;;;5093048;28;20084;-83
2023/07/18 04:48:19;;;;;;;3.55;1.85;;;23.90;99.90;;;;;;5111073;28;20023;-83
2023/07/18 04:50:47;;;;;;;13.52;1.83;;;24.00;99.90;;;;;;5111120;28;20110;-83
2023/07/18 04:53:13;;;;;;;6.43;1.52;;;24.10;99.90;;;;;;5113639;28;20085;-83
2023/07/18 04:55:39;;;;;;;6.43;2.38;;;24.10;99.90;;;;;;5114856;28;20023;-83
2023/07/18 04:58:06;;;;;;;2.92;1.60;;;24.20;99.90;;;;;;5096661;28;20062;-83
2023/07/18 05:00:32;;;;;;;4.18;2.33;;;24.30;99.90;;;;;;5114774;28;20030;-84
2023/07/18 05:02:59;;;;;;;4.70;1.73;;;24.40;99.90;;;;;;5114823;28;20095;-82
2023/07/18 05:05:29;;;;;;;7.78;1.98;;;24.60;99.90;;;;;;5115045;28;20027;-82
2023/07/18 05:07:56;;;;;;;2.80;1.58;;;24.70;99.90;;;;;;5114829;28;20163;-83
2023/07/18 05:10:25;;;;;;;4.18;1.95;;;24.80;99.90;;;;;;5096331;28;20027;-83
2023/07/18 05:12:52;;;;;;;4.38;1.50;;;24.90;99.90;;;;;;5114599;28;20043;-83
2023/07/18 05:15:18;;;;;;;2.70;1.60;;;25.00;99.90;;;;;;5114475;28;20019;-83
2023/07/18 05:17:45;;;;;;;4.15;1.80;;;25.10;99.90;;;;;;5114418;28;20027;-82
2023/07/18 05:20:11;;;;;;;9.00;1.60;;;25.30;99.90;;;;;;5114566;28;20023;-81
2023/07/18 05:22:39;;;;;;;5.00;1.83;;;25.60;99.90;;;;;;5114742;28;20034;-81
2023/07/18 05:25:09;;;;;;;3.45;1.63;;;25.80;99.90;;;;;;5114320;28;20028;-81
2023/07/18 05:27:35;;;;;;;6.03;2.08;;;26.10;99.90;;;;;;5109429;28;20069;-80
2023/07/18 05:30:01;;;;;;;3.33;1.55;;;26.30;99.90;;;;;;5113976;28;20103;-81
2023/07/18 05:32:27;;;;;;;4.10;1.90;;;26.50;99.90;;;;;;5113552;28;20024;-80
2023/07/18 05:34:53;;;;;;;4.07;1.85;;;26.50;99.90;;;;;;5095826;28;20031;-79
2023/07/18 05:37:21;;;;;;;3.00;1.42;;;26.70;99.90;;;;;;5113946;28;20020;-81
2023/07/18 05:39:47;;;;;;;3.25;2.25;;;26.80;99.90;;;;;;5095853;28;20032;-81
2023/07/18 05:42:12;;;;;;;4.00;2.00;;;27.00;99.50;;;;;;5113575;28;20110;-80
2023/07/18 05:44:38;;;;;;;4.00;1.80;;;27.20;98.60;;;;;;5095498;28;20403;-81
2023/07/18 05:47:04;;;;;;;3.50;1.70;;;27.40;98.10;;;;;;5095723;28;20387;-79
2023/07/18 05:49:30;;;;;;;5.93;1.90;;;27.50;97.50;;;;;;5113813;28;20024;-80
2023/07/18 05:51:56;;;;;;;3.63;1.77;;;27.50;96.90;;;;;;5113884;28;20031;-84
2023/07/18 05:54:22;;;;;;;2.85;1.80;;;27.60;96.50;;;;;;5113756;28;20023;-83
2023/07/18 05:56:48;;;;;;;7.93;2.08;;;27.90;95.80;;;;;;5113562;28;20066;-84
2023/07/18 05:59:13;;;;;;;5.25;2.20;;;28.30;94.90;;;;;;5113554;28;20108;-83
2023/07/18 06:01:39;;;;;;;6.40;2.00;;;28.90;93.70;;;;;;5095353;28;20031;-83
2023/07/18 06:04:05;;;;;;;3.38;1.75;;;30.10;91.50;;;;;;5113325;28;20031;-81
2023/07/18 06:06:31;;;;;;;10.18;3.03;;;31.40;83.00;;;;;;5095340;28;20023;-84
2023/07/18 06:08:57;;;;;;;9.25;2.47;;;32.50;68.20;;;;;;5113302;28;20483;-84
2023/07/18 06:11:23;;;;;;;23.38;4.82;;;33.30;64.20;;;;;;5094903;28;20111;-82
2023/07/18 06:13:49;;;;;;;3.97;1.95;;;34.30;58.70;;;;;;5094986;28;20146;-82
2023/07/18 06:16:16;;;;;;;7.53;1.98;;;35.30;54.30;;;;;;5095009;28;20023;-82
2023/07/18 06:18:41;;;;;;;4.45;2.22;;;36.20;50.00;;;;;;5113070;28;20476;-82
2023/07/18 06:21:07;;;;;;;6.70;1.83;;;37.30;44.90;;;;;;5094760;28;20016;-82
2023/07/18 06:23:33;;;;;;;4.95;1.98;;;37.50;42.00;;;;;;5094480;28;20092;-84
2023/07/18 06:25:59;;;;;;;10.43;2.80;;;37.90;40.50;;;;;;5094450;28;20045;-81
2023/07/18 06:28:24;;;;;;;13.65;2.33;;;38.30;39.50;;;;;;5112914;28;20066;-84
2023/07/18 06:30:57;;;;;;;14.13;2.83;;;38.80;39.10;;;;;;5094419;28;20080;-82
2023/07/18 06:33:23;;;;;;;7.75;2.85;;;38.90;36.50;;;;;;5112735;28;20412;-82
2023/07/18 06:35:54;;;;;;;7.72;2.28;;;39.20;34.80;;;;;;5094134;28;20479;-81
2023/07/18 06:38:20;;;;;;;10.60;2.08;;;39.00;34.60;;;;;;5094617;28;20055;-84
2023/07/18 06:40:46;;;;;;;4.78;2.40;;;38.70;35.10;;;;;;5094490;28;20059;-82
2023/07/18 06:43:13;;;;;;;12.18;2.30;;;38.90;32.60;;;;;;5112609;28;20084;-82
2023/07/18 06:45:38;;;;;;;8.60;2.15;;;38.80;33.20;;;;;;5094960;28;20042;-81
2023/07/18 06:48:05;;;;;;;5.95;2.00;;;38.50;32.50;;;;;;5094539;28;20488;-82
2023/07/18 06:50:30;;;;;;;4.07;2.28;;;37.90;33.40;;;;;;5112494;28;20016;-84
2023/07/18 06:52:56;;;;;;;6.47;2.35;;;38.40;32.00;;;;;;5112207;28;20397;-84
2023/07/18 06:55:22;;;;;;;6.80;2.00;;;38.30;31.80;;;;;;5112336;28;20035;-84
2023/07/18 06:57:48;;;;;;;6.20;2.30;;;38.40;31.40;;;;;;5112250;28;20052;-84
2023/07/18 07:00:14;;;;;;;6.20;2.00;;;38.40;31.50;;;;;;5094131;28;20050;-84
2023/07/18 07:02:40;;;;;;;4.72;1.88;;;38.10;32.10;;;;;;5111784;28;20035;-84
2023/07/18 07:05:06;;;;;;;6.18;2.55;;;38.00;31.50;;;;;;5093841;28;20111;-83
2023/07/18 07:07:32;;;;;;;5.18;2.20;;;38.30;29.80;;;;;;5093863;28;20142;-83
2023/07/18 07:09:58;;;;;;;5.57;2.55;;;38.00;30.50;;;;;;5111976;28;20023;-83
2023/07/18 07:12:23;;;;;;;3.45;1.92;;;37.80;32.40;;;;;;5093824;28;20081;-83
2023/07/18 07:14:49;;;;;;;3.83;2.28;;;38.00;32.40;;;;;;5093384;28;20031;-84
2023/07/18 07:17:14;;;;;;;6.18;3.00;;;38.20;30.70;;;;;;5110841;28;20034;-84
2023/07/18 07:19:40;;;;;;;6.97;2.08;;;38.50;30.80;;;;;;5093635;28;20035;-83
2023/07/18 07:22:06;;;;;;;4.68;2.40;;;38.70;30.70;;;;;;5111833;28;20023;-83
2023/07/18 07:24:31;;;;;;;10.48;2.72;;;38.60;30.10;;;;;;5111784;28;20035;-83
2023/07/18 07:26:57;;;;;;;6.03;2.45;;;38.30;30.50;;;;;;5093575;28;20027;-82
2023/07/18 07:29:25;;;;;;;13.80;3.47;;;38.00;32.00;;;;;;5093407;28;20043;-83
2023/07/18 07:31:51;;;;;;;8.27;2.88;;;38.20;31.50;;;;;;5111526;28;20047;-82
2023/07/18 07:34:16;;;;;;;4.28;2.20;;;38.40;30.80;;;;;;5093422;28;20039;-83
2023/07/18 07:36:42;;;;;;;8.68;2.45;;;38.70;31.40;;;;;;5093375;28;20501;-83
2023/07/18 07:39:08;;;;;;;5.45;2.65;;;38.80;30.70;;;;;;5093372;28;20035;-82
2023/07/18 07:41:34;;;;;;;5.68;2.20;;;38.80;30.30;;;;;;5111632;28;20023;-82
2023/07/18 07:44:00;;;;;;;54.95;13.73;;;38.30;30.00;;;;;;5093364;28;20024;-83
2023/07/18 07:46:26;;;;;;;54.78;10.38;;;38.30;30.90;;;;;;5093391;28;20035;-83
2023/07/18 07:48:52;;;;;;;7.85;2.63;;;38.50;30.70;;;;;;5111232;28;20502;-82
2023/07/18 07:51:18;;;;;;;3.75;2.28;;;39.00;30.10;;;;;;5111512;28;20508;-83
2023/07/18 07:53:43;;;;;;;8.10;2.17;;;39.00;29.70;;;;;;5111143;28;20031;-83
2023/07/18 07:56:09;;;;;;;12.55;2.50;;;38.40;30.00;;;;;;5093256;28;20161;-83
2023/07/18 07:58:36;;;;;;;6.70;2.42;;;38.30;31.30;;;;;;5111605;28;20023;-83
2023/07/18 08:01:03;;;;;;;6.03;2.13;;;38.50;30.90;;;;;;5093216;28;20097;-83
2023/07/18 08:03:28;;;;;;;8.38;2.47;;;38.40;31.30;;;;;;5093211;28;20035;-82
2023/07/18 08:05:54;;;;;;;3.40;2.20;;;38.70;30.40;;;;;;5111076;28;20020;-82
2023/07/18 08:08:19;;;;;;;5.18;2.42;;;39.00;30.00;;;;;;5111236;28;20392;-83
2023/07/18 08:10:45;;;;;;;4.63;2.03;;;38.90;30.10;;;;;;5093046;28;20027;-83
2023/07/18 08:13:11;;;;;;;4.57;2.33;;;38.90;30.30;;;;;;5111050;28;20036;-82
2023/07/18 08:15:37;;;;;;;9.13;2.72;;;38.90;31.30;;;;;;5092840;28;20135;-83
2023/07/18 08:18:03;;;;;;;6.43;2.60;;;39.40;30.00;;;;;;5092884;28;20036;-83
2023/07/18 08:20:29;;;;;;;8.77;2.15;;;39.10;31.50;;;;;;5111116;28;20051;-83
2023/07/18 08:22:55;;;;;;;4.68;2.20;;;39.40;30.70;;;;;;5111088;28;20461;-83
2023/07/18 08:25:20;;;;;;;8.30;2.47;;;39.40;30.70;;;;;;5093053;28;20034;-82
2023/07/18 08:27:46;;;;;;;7.20;2.30;;;39.30;30.90;;;;;;5113309;28;20531;-83
2023/07/18 08:30:12;;;;;;;12.27;2.47;;;39.60;30.20;;;;;;5114943;28;20039;-82
2023/07/18 08:32:38;;;;;;;5.70;1.90;;;39.90;29.30;;;;;;5096844;28;20039;-83
2023/07/18 08:35:05;;;;;;;4.55;2.55;;;39.50;29.40;;;;;;5114969;28;20020;-83
2023/07/18 08:37:30;;;;;;;4.13;2.25;;;39.30;30.10;;;;;;5115129;28;20031;-83
2023/07/18 08:39:56;;;;;;;5.70;2.20;;;39.40;30.20;;;;;;5114962;28;20549;-82
2023/07/18 08:42:26;;;;;;;7.65;2.53;;;39.30;30.50;;;;;;5114911;28;20024;-82
2023/07/18 08:44:53;;;;;;;6.47;2.40;;;39.40;31.00;;;;;;5096684;28;20028;-83
2023/07/18 08:47:25;;;;;;;4.80;2.00;;;39.50;30.10;;;;;;5114814;28;20495;-82
2023/07/18 08:49:51;;;;;;;4.85;2.50;;;39.70;30.20;;;;;;5096602;28;20027;-82
2023/07/18 08:52:17;;;;;;;4.78;2.50;;;39.60;30.80;;;;;;5114398;28;20488;-83
2023/07/18 08:54:42;;;;;;;3.95;2.65;;;39.70;30.30;;;;;;5114801;28;20512;-83
2023/07/18 08:57:08;;;;;;;5.53;2.30;;;39.60;30.80;;;;;;5114198;28;20070;-82
2023/07/18 08:59:34;;;;;;;5.43;2.50;;;39.40;30.80;;;;;;5096065;28;20031;-82
2023/07/18 09:02:00;;;;;;;4.82;2.50;;;39.40;30.80;;;;;;5096083;28;20442;-82
2023/07/18 09:04:26;;;;;;;5.25;2.42;;;39.30;31.40;;;;;;5114174;28;20020;-83
2023/07/18 09:06:59;;;;;;;3.83;2.08;;;39.10;30.60;;;;;;5096018;28;20024;-82
2023/07/18 09:09:25;;;;;;;7.70;2.17;;;39.00;31.70;;;;;;5096093;28;20032;-82
2023/07/18 09:11:58;;;;;;;11.95;2.22;;;39.10;32.00;;;;;;5114099;28;20039;-82
2023/07/18 09:14:29;;;;;;;6.50;2.17;;;39.40;31.40;;;;;;5095793;28;20039;-83
2023/07/18 09:16:56;;;;;;;3.90;2.15;;;39.60;31.60;;;;;;5113873;28;20032;-82
2023/07/18 09:19:48;;;;;;;4.90;2.22;;;39.20;29.90;;;;;;5114004;28;20024;-83
2023/07/18 09:22:16;;;;;;;6.05;2.17;;;39.40;30.00;;;;;;5095814;28;20035;-82
2023/07/18 09:24:42;;;;;;;3.70;2.13;;;39.00;30.60;;;;;;5114202;28;20418;-82
2023/07/18 09:27:13;;;;;;;6.47;2.45;;;38.90;31.50;;;;;;5113883;28;20028;-83
2023/07/18 09:29:45;;;;;;;4.07;2.10;;;39.00;31.20;;;;;;5095627;28;20088;-83
2023/07/18 09:32:24;;;;;;;6.47;2.88;;;39.10;31.60;;;;;;5113844;28;20031;-81
2023/07/18 09:35:01;;;;;;;5.57;2.30;;;39.30;30.80;;;;;;5113769;28;20039;-83
2023/07/18 09:37:27;;;;;;;5.25;2.38;;;39.30;31.00;;;;;;5095544;28;20028;-83
2023/07/18 09:39:54;;;;;;;8.52;2.72;;;39.20;31.10;;;;;;5094433;28;20023;-83
2023/07/18 09:42:21;;;;;;;4.80;2.17;;;39.00;32.20;;;;;;5095385;28;20032;-82
2023/07/18 09:44:50;;;;;;;5.70;2.72;;;39.00;31.80;;;;;;5113688;28;20118;-83
2023/07/18 09:47:17;;;;;;;3.63;2.10;;;38.80;32.20;;;;;;5113666;28;20024;-84
2023/07/18 09:49:43;;;;;;;6.22;2.20;;;38.80;31.50;;;;;;5095409;28;20030;-82
2023/07/18 09:52:10;;;;;;;6.15;2.30;;;38.80;31.70;;;;;;5113502;28;20499;-83
2023/07/18 09:54:36;;;;;;;5.97;2.30;;;38.90;32.10;;;;;;5113360;28;20044;-83
2023/07/18 09:57:09;;;;;;;7.07;2.47;;;39.00;31.90;;;;;;5095090;28;20027;-83
2023/07/18 09:59:37;;;;;;;5.63;1.98;;;39.00;31.50;;;;;;5095251;28;20032;-82
2023/07/18 10:02:06;;;;;;;6.95;2.63;;;38.90;31.50;;;;;;5113655;28;20139;-83
2023/07/18 10:04:32;;;;;;;4.35;2.35;;;39.10;31.10;;;;;;5113155;28;20020;-83
2023/07/18 10:06:58;;;;;;;8.02;1.95;;;38.70;31.20;;;;;;5112926;28;20098;-82
2023/07/18 10:09:27;;;;;;;6.88;2.22;;;38.60;31.60;;;;;;5113107;28;20559;-82
2023/07/18 10:11:59;;;;;;;4.05;2.20;;;37.80;31.50;;;;;;5113212;28;20052;-82
2023/07/18 10:14:46;;;;;;;4.93;2.45;;;37.20;32.20;;;;;;5113245;28;20028;-81
2023/07/18 10:17:24;;;;;;;4.63;2.17;;;36.60;33.30;;;;;;5095120;28;20541;-82
2023/07/18 10:19:50;;;;;;;5.45;2.35;;;36.10;33.90;;;;;;5094669;28;20023;-81
2023/07/18 10:22:29;;;;;;;5.70;1.98;;;35.70;34.10;;;;;;5094955;28;20057;-81
2023/07/18 10:25:00;;;;;;;5.38;2.28;;;35.40;34.20;;;;;;5094625;28;20015;-82
2023/07/18 10:27:44;;;;;;;3.95;2.28;;;35.00;34.30;;;;;;5094453;28;20035;-82
2023/07/18 10:30:12;;;;;;;6.63;2.20;;;34.70;35.00;;;;;;5094387;28;20066;-81
2023/07/18 10:32:39;;;;;;;5.35;1.73;;;34.50;35.50;;;;;;5094480;28;20041;-82
2023/07/18 10:35:07;;;;;;;10.27;2.25;;;34.40;35.50;;;;;;5094663;28;20043;-82
2023/07/18 10:37:32;;;;;;;8.00;2.15;;;34.20;36.60;;;;;;5112717;28;20024;-82
2023/07/18 10:39:59;;;;;;;5.07;2.38;;;34.10;36.80;;;;;;5112793;28;20027;-81
2023/07/18 10:42:32;;;;;;;5.35;1.95;;;33.90;36.60;;;;;;5094418;28;20663;-82
2023/07/18 10:44:59;;;;;;;3.67;1.95;;;33.80;36.70;;;;;;5112677;28;20026;-81
2023/07/18 10:47:26;;;;;;;4.50;2.70;;;33.60;38.00;;;;;;5093983;28;20556;-82
2023/07/18 10:49:52;;;;;;;6.63;2.60;;;33.50;38.00;;;;;;5093938;28;20019;-82
2023/07/18 10:52:20;;;;;;;10.23;2.17;;;33.50;37.70;;;;;;5093978;28;20036;-82
2023/07/18 10:54:51;;;;;;;4.50;1.70;;;33.40;37.80;;;;;;5112301;28;20057;-82
2023/07/18 10:57:22;;;;;;;3.97;2.30;;;33.40;38.00;;;;;;5112509;28;20169;-82
2023/07/18 10:59:48;;;;;;;5.00;2.70;;;33.30;38.90;;;;;;5112310;28;20028;-81
2023/07/18 11:02:14;;;;;;;5.70;2.00;;;33.40;38.70;;;;;;5093910;28;20020;-81
2023/07/18 11:04:39;;;;;;;9.25;2.63;;;33.40;39.10;;;;;;5094020;28;20565;-82
2023/07/18 11:07:05;;;;;;;4.25;2.30;;;33.40;39.30;;;;;;5112120;28;20068;-81
2023/07/18 11:09:32;;;;;;;4.60;2.15;;;33.40;38.80;;;;;;5094021;28;20126;-82
2023/07/18 11:11:58;;;;;;;4.78;2.30;;;33.30;38.60;;;;;;5112177;28;20023;-81
2023/07/18 11:14:38;;;;;;;5.20;2.58;;;33.30;38.70;;;;;;5093776;28;20118;-82
2023/07/18 11:17:18;;;;;;;8.25;2.90;;;33.20;38.70;;;;;;5094073;28;20023;-83
2023/07/18 11:19:46;;;;;;;7.07;2.00;;;33.20;38.30;;;;;;5112063;28;20030;-81
2023/07/18 11:22:15;;;;;;;5.75;2.75;;;33.30;39.40;;;;;;5111791;28;20028;-82
2023/07/18 11:24:45;;;;;;;5.88;2.42;;;33.30;40.10;;;;;;5094103;28;20065;-82
2023/07/18 11:27:15;;;;;;;5.82;2.58;;;33.30;39.30;;;;;;5112125;28;20139;-82
2023/07/18 11:29:54;;;;;;;4.38;2.28;;;33.30;39.30;;;;;;5093539;28;20050;-82
2023/07/18 11:32:39;;;;;;;5.13;2.05;;;33.20;39.10;;;;;;5088997;28;20485;-82
2023/07/18 11:35:07;;;;;;;5.13;2.38;;;33.20;39.00;;;;;;5093641;28;20043;-82
2023/07/18 11:37:41;;;;;;;7.22;2.33;;;33.10;39.20;;;;;;5111680;28;20050;-82
2023/07/18 11:40:07;;;;;;;6.53;2.30;;;33.10;40.20;;;;;;5093641;28;20035;-82
2023/07/18 11:42:44;;;;;;;6.45;2.17;;;33.10;40.10;;;;;;5093298;28;20441;-82
2023/07/18 11:45:10;;;;;;;6.80;2.50;;;33.10;38.80;;;;;;5111545;28;20016;-82
2023/07/18 11:47:37;;;;;;;7.40;2.55;;;33.00;39.20;;;;;;5093600;28;20028;-82
2023/07/18 11:50:09;;;;;;;3.88;2.67;;;33.00;38.90;;;;;;5112028;28;20016;-82
2023/07/18 11:52:35;;;;;;;4.50;2.10;;;32.90;39.40;;;;;;5111784;28;20122;-82
2023/07/18 11:55:01;;;;;;;5.00;2.63;;;32.90;39.70;;;;;;5093208;28;20114;-82
2023/07/18 11:57:26;;;;;;;5.85;2.30;;;32.90;39.00;;;;;;5112007;28;20448;-82
2023/07/18 11:59:52;;;;;;;7.28;2.47;;;32.90;39.60;;;;;;5093442;28;20034;-83
2023/07/18 12:02:19;;;;;;;4.13;2.33;;;32.90;40.00;;;;;;5113270;28;20027;-82
2023/07/18 12:04:44;;;;;;;5.22;2.20;;;32.90;39.60;;;;;;5116030;28;20396;-82
2023/07/18 12:07:10;;;;;;;4.47;2.38;;;33.00;39.80;;;;;;5115830;28;20016;-82
2023/07/18 12:09:36;;;;;;;5.07;2.33;;;33.00;39.60;;;;;;5115376;28;20028;-83
2023/07/18 12:12:02;;;;;;;4.90;2.80;;;32.90;38.20;;;;;;5115870;28;20023;-83
2023/07/18 12:14:29;;;;;;;5.25;2.17;;;32.90;38.90;;;;;;5096720;28;20399;-82
2023/07/18 12:16:54;;;;;;;5.35;2.65;;;32.80;39.00;;;;;;5115685;28;20019;-82
2023/07/18 12:19:21;;;;;;;5.63;2.30;;;32.90;38.80;;;;;;5097619;28;20032;-82
2023/07/18 12:21:48;;;;;;;10.98;2.35;;;32.90;38.10;;;;;;5115517;28;20020;-83
2023/07/18 12:24:14;;;;;;;9.32;2.55;;;32.90;38.80;;;;;;5115486;28;20131;-82
2023/07/18 12:26:39;;;;;;;8.43;2.67;;;32.90;38.00;;;;;;5097268;28;20516;-82
2023/07/18 12:29:05;;;;;;;5.47;2.15;;;32.90;37.70;;;;;;5115299;28;20035;-83
2023/07/18 12:31:35;;;;;;;5.40;2.50;;;32.90;37.50;;;;;;5114915;28;20047;-83
2023/07/18 12:34:01;;;;;;;6.25;2.67;;;32.80;37.20;;;;;;5115104;28;20035;-82
2023/07/18 12:36:26;;;;;;;9.50;2.53;;;32.80;37.60;;;;;;5096827;28;20038;-83
2023/07/18 12:38:52;;;;;;;6.40;2.05;;;32.80;37.00;;;;;;5096931;28;20391;-83
2023/07/18 12:41:17;;;;;;;3.67;2.08;;;32.70;36.40;;;;;;5115414;28;20412;-83
2023/07/18 12:43:43;;;;;;;8.57;2.13;;;32.60;37.30;;;;;;5114858;28;20503;-83
2023/07/18 12:46:09;;;;;;;9.73;2.38;;;32.70;38.20;;;;;;5115027;28;20503;-82